createdAt,value
2018-09-02T00:00:24.986Z,2.93
2018-09-02T00:02:52.326Z,2.40
2018-09-02T00:05:19.515Z,2.40
2018-09-02T00:07:46.694Z,2.50
2018-09-02T00:10:13.867Z,2.70
2018-09-02T00:12:41.034Z,2.73
2018-09-02T00:15:08.192Z,2.70
2018-09-02T00:17:35.360Z,2.60
2018-09-02T00:20:02.522Z,2.57
2018-09-02T00:22:29.682Z,4.90
2018-09-02T00:24:56.846Z,2.77
2018-09-02T00:27:24.007Z,3.30
2018-09-02T00:29:51.158Z,2.40
2018-09-02T00:32:18.330Z,2.47
2018-09-02T00:34:45.492Z,2.67
2018-09-02T00:37:12.655Z,2.93
2018-09-02T00:39:39.798Z,2.57
2018-09-02T00:42:06.963Z,3.23
2018-09-02T00:44:34.114Z,2.87
2018-09-02T00:47:01.284Z,2.70
2018-09-02T00:49:28.435Z,2.87
2018-09-02T00:51:55.607Z,2.70
2018-09-02T00:54:22.787Z,2.87
2018-09-02T00:56:49.983Z,2.80
2018-09-02T00:59:17.142Z,3.17
2018-09-02T01:01:44.310Z,2.53
2018-09-02T01:04:11.464Z,3.00
2018-09-02T01:06:38.642Z,2.87
2018-09-02T01:09:06.303Z,3.57
2018-09-02T01:11:33.488Z,2.23
2018-09-02T01:14:00.674Z,2.43
2018-09-02T01:16:27.827Z,2.60
2018-09-02T01:18:54.996Z,2.93
2018-09-02T01:21:22.147Z,2.90
2018-09-02T01:23:49.409Z,2.33
2018-09-02T01:26:16.562Z,3.13
2018-09-02T01:28:43.738Z,3.00
2018-09-02T01:31:10.894Z,2.23
2018-09-02T01:33:38.071Z,2.80
2018-09-02T01:36:05.663Z,2.67
2018-09-02T01:38:32.830Z,3.00
2018-09-02T01:41:00.007Z,3.13
2018-09-02T01:43:27.180Z,3.20
2018-09-02T01:45:54.334Z,3.50
2018-09-02T01:48:21.527Z,2.80
2018-09-02T01:50:48.686Z,2.80
2018-09-02T01:53:15.874Z,2.47
2018-09-02T01:55:43.031Z,3.20
2018-09-02T01:58:10.207Z,2.77
2018-09-02T02:00:37.365Z,2.80
2018-09-02T02:03:04.543Z,2.60
2018-09-02T02:05:31.732Z,3.07
2018-09-02T02:07:58.946Z,2.67
2018-09-02T02:10:26.113Z,2.97
2018-09-02T02:12:53.282Z,3.20
2018-09-02T02:15:20.463Z,2.83
2018-09-02T02:17:47.644Z,3.00
2018-09-02T02:20:14.811Z,3.30
2018-09-02T02:22:41.982Z,3.07
2018-09-02T02:25:09.153Z,2.87
2018-09-02T02:27:36.333Z,2.83
2018-09-02T02:30:03.522Z,3.20
2018-09-02T02:32:30.703Z,3.03
2018-09-02T02:34:57.861Z,2.47
2018-09-02T02:37:25.040Z,3.43
2018-09-02T02:39:52.303Z,2.90
2018-09-02T02:42:19.478Z,2.23
2018-09-02T02:44:46.655Z,2.93
2018-09-02T02:47:13.797Z,3.13
2018-09-02T02:49:40.960Z,2.90
2018-09-02T02:52:08.122Z,2.70
2018-09-02T02:54:35.310Z,2.87
2018-09-02T02:57:02.467Z,3.20
2018-09-02T02:59:29.656Z,2.90
2018-09-02T03:01:56.810Z,3.40
2018-09-02T03:04:24.000Z,3.27
2018-09-02T03:06:51.168Z,2.97
2018-09-02T03:09:18.352Z,3.20
2018-09-02T03:11:45.530Z,2.63
2018-09-02T03:14:12.712Z,3.20
2018-09-02T03:16:40.208Z,2.90
2018-09-02T03:19:07.782Z,3.37
2018-09-02T03:21:34.991Z,3.53
2018-09-02T03:24:02.175Z,3.17
2018-09-02T03:26:29.355Z,3.20
2018-09-02T03:28:56.528Z,3.47
2018-09-02T03:31:23.708Z,2.97
2018-09-02T03:33:50.883Z,3.40
2018-09-02T03:36:18.119Z,3.20
2018-09-02T03:38:45.294Z,2.80
2018-09-02T03:41:12.446Z,2.60
2018-09-02T03:43:39.619Z,3.03
2018-09-02T03:46:06.792Z,3.47
2018-09-02T03:48:33.966Z,3.20
2018-09-02T03:51:01.133Z,3.47
2018-09-02T03:53:28.299Z,3.20
2018-09-02T03:55:55.463Z,3.87
2018-09-02T03:58:22.643Z,3.20
2018-09-02T04:00:49.835Z,3.13
2018-09-02T04:03:17.045Z,3.30
2018-09-02T04:05:44.210Z,3.70
2018-09-02T04:08:11.416Z,3.20
2018-09-02T04:10:38.600Z,3.50
2018-09-02T04:13:05.803Z,3.20
2018-09-02T04:15:32.983Z,3.23
2018-09-02T04:18:00.153Z,2.90
2018-09-02T04:20:42.039Z,2.90
2018-09-02T04:23:09.223Z,3.37
2018-09-02T04:25:36.398Z,3.30
2018-09-02T04:28:03.558Z,3.37
2018-09-02T04:30:30.814Z,3.93
2018-09-02T04:32:58.041Z,3.40
2018-09-02T04:35:26.242Z,3.77
2018-09-02T04:37:53.791Z,3.37
2018-09-02T04:40:21.578Z,3.27
2018-09-02T04:42:48.743Z,3.30
2018-09-02T04:45:16.146Z,2.97
2018-09-02T04:47:43.274Z,3.53
2018-09-02T04:50:11.910Z,3.07
2018-09-02T04:52:39.074Z,3.57
2018-09-02T04:55:06.277Z,3.73
2018-09-02T04:57:33.651Z,3.23
2018-09-02T05:00:00.834Z,3.33
2018-09-02T05:02:28.041Z,3.57
2018-09-02T05:04:55.226Z,3.97
2018-09-02T05:07:22.399Z,3.47
2018-09-02T05:09:49.580Z,3.80
2018-09-02T05:12:16.738Z,3.30
2018-09-02T05:14:43.919Z,4.00
2018-09-02T05:17:11.171Z,3.13
2018-09-02T05:19:38.354Z,3.77
2018-09-02T05:22:05.530Z,4.10
2018-09-02T05:24:32.730Z,3.60
2018-09-02T05:27:00.004Z,3.90
2018-09-02T05:29:27.171Z,3.30
2018-09-02T05:31:54.347Z,3.93
2018-09-02T05:34:21.536Z,3.27
2018-09-02T05:36:48.713Z,4.43
2018-09-02T05:39:22.338Z,3.80
2018-09-02T05:41:49.528Z,3.77
2018-09-02T05:44:16.688Z,3.57
2018-09-02T05:46:43.939Z,3.70
2018-09-02T05:49:11.124Z,3.80
2018-09-02T05:51:38.312Z,3.60
2018-09-02T05:54:05.530Z,4.70
2018-09-02T05:56:32.685Z,3.60
2018-09-02T05:58:59.896Z,3.97
2018-09-02T06:01:27.052Z,3.70
2018-09-02T06:03:54.226Z,3.47
2018-09-02T06:06:21.416Z,4.00
2018-09-02T06:08:48.606Z,3.57
2018-09-02T06:11:15.754Z,4.00
2018-09-02T06:13:42.945Z,3.53
2018-09-02T06:16:16.839Z,3.87
2018-09-02T06:18:44.069Z,3.93
2018-09-02T06:21:11.232Z,3.67
2018-09-02T06:23:38.611Z,3.80
2018-09-02T06:26:05.770Z,3.80
2018-09-02T06:28:32.953Z,4.17
2018-09-02T06:31:00.363Z,4.30
2018-09-02T06:33:27.522Z,4.27
2018-09-02T06:35:54.707Z,3.30
2018-09-02T06:38:21.891Z,3.67
2018-09-02T06:40:49.079Z,3.70
2018-09-02T06:43:16.235Z,3.70
2018-09-02T06:45:43.453Z,4.13
2018-09-02T06:48:10.618Z,3.73
2018-09-02T06:50:37.795Z,3.43
2018-09-02T06:53:05.088Z,3.77
2018-09-02T06:55:32.246Z,3.80
2018-09-02T06:57:59.468Z,3.83
2018-09-02T07:00:26.620Z,4.17
2018-09-02T07:02:53.805Z,3.60
2018-09-02T07:05:21.007Z,4.43
2018-09-02T07:07:48.195Z,3.90
2018-09-02T07:10:15.376Z,4.00
2018-09-02T07:12:42.556Z,3.70
2018-09-02T07:15:09.744Z,4.03
2018-09-02T07:17:36.922Z,3.93
2018-09-02T07:20:04.128Z,3.70
2018-09-02T07:22:31.275Z,3.70
2018-09-02T07:24:58.444Z,3.80
2018-09-02T07:27:25.602Z,3.67
2018-09-02T07:29:52.791Z,3.40
2018-09-02T07:32:20.033Z,3.43
2018-09-02T07:34:47.295Z,3.70
2018-09-02T07:37:14.451Z,3.77
2018-09-02T07:39:41.634Z,3.80
2018-09-02T07:42:08.842Z,3.50
2018-09-02T07:44:36.088Z,4.07
2018-09-02T07:47:03.276Z,3.83
2018-09-02T07:49:30.465Z,3.83
2018-09-02T07:51:57.654Z,4.10
2018-09-02T07:54:24.838Z,4.47
2018-09-02T07:56:52.063Z,3.67
2018-09-02T07:59:19.247Z,3.70
2018-09-02T08:01:46.410Z,3.80
2018-09-02T08:04:13.603Z,3.80
2018-09-02T08:06:40.756Z,3.43
2018-09-02T08:09:08.767Z,3.70
2018-09-02T08:11:36.026Z,3.70
2018-09-02T08:14:03.222Z,4.53
2018-09-02T08:16:30.448Z,4.33
2018-09-02T08:18:57.769Z,3.93
2018-09-02T08:21:24.928Z,4.40
2018-09-02T08:23:52.106Z,4.00
2018-09-02T08:26:19.264Z,3.70
2018-09-02T08:28:46.470Z,3.77
2018-09-02T08:31:13.642Z,4.20
2018-09-02T08:33:40.823Z,3.93
2018-09-02T08:36:07.976Z,3.90
2018-09-02T08:38:35.191Z,4.70
2018-09-02T08:41:02.351Z,3.90
2018-09-02T08:43:29.523Z,4.77
2018-09-02T08:45:56.715Z,3.80
2018-09-02T08:48:23.891Z,3.87
2018-09-02T08:50:51.090Z,4.10
2018-09-02T08:53:18.367Z,4.60
2018-09-02T08:55:45.569Z,4.50
2018-09-02T08:58:12.739Z,4.23
2018-09-02T09:00:39.922Z,3.90
2018-09-02T09:03:07.131Z,4.43
2018-09-02T09:05:34.311Z,4.70
2018-09-02T09:08:01.661Z,3.70
2018-09-02T09:10:28.686Z,4.20
2018-09-02T09:12:55.908Z,4.00
2018-09-02T09:15:23.060Z,3.80
2018-09-02T09:17:50.260Z,4.30
2018-09-02T09:20:17.442Z,4.03
2018-09-02T09:22:44.634Z,4.13
2018-09-02T09:25:11.858Z,4.40
2018-09-02T09:27:39.607Z,4.40
2018-09-02T09:30:07.415Z,3.53
2018-09-02T09:32:34.605Z,4.50
2018-09-02T09:35:01.874Z,4.37
2018-09-02T09:37:29.132Z,4.20
2018-09-02T09:39:56.977Z,4.37
2018-09-02T09:42:24.198Z,4.30
2018-09-02T09:44:51.850Z,4.20
2018-09-02T09:47:19.018Z,4.30
2018-09-02T09:49:46.380Z,4.53
2018-09-02T09:52:13.551Z,4.60
2018-09-02T09:54:40.733Z,4.30
2018-09-02T09:57:07.895Z,4.80
2018-09-02T09:59:35.078Z,4.87
2018-09-02T10:02:13.719Z,4.10
2018-09-02T10:04:41.781Z,6.03
2018-09-02T10:07:08.922Z,4.70
2018-09-02T10:09:36.074Z,4.90
2018-09-02T10:12:03.284Z,4.73
2018-09-02T10:14:30.432Z,5.00
2018-09-02T10:16:57.619Z,4.63
2018-09-02T10:19:24.801Z,4.20
2018-09-02T10:21:51.972Z,5.00
2018-09-02T10:24:19.151Z,4.73
2018-09-02T10:26:46.373Z,4.17
2018-09-02T10:29:13.537Z,4.13
2018-09-02T10:31:40.722Z,4.93
2018-09-02T10:34:07.906Z,4.50
2018-09-02T10:36:35.107Z,5.50
2018-09-02T10:39:02.285Z,4.80
2018-09-02T10:41:29.494Z,4.07
2018-09-02T10:43:56.703Z,5.17
2018-09-02T10:46:23.886Z,5.07
2018-09-02T10:48:51.390Z,5.57
2018-09-02T10:51:18.538Z,4.67
2018-09-02T10:53:48.085Z,4.60
2018-09-02T10:56:20.860Z,4.20
2018-09-02T10:58:47.999Z,4.20
2018-09-02T11:01:15.198Z,4.17
2018-09-02T11:03:42.417Z,4.20
2018-09-02T11:06:09.574Z,4.00
2018-09-02T11:08:49.291Z,4.40
2018-09-02T11:11:16.531Z,4.00
2018-09-02T11:13:44.001Z,4.03
2018-09-02T11:16:12.015Z,3.57
2018-09-02T11:18:39.162Z,3.70
2018-09-02T11:21:06.330Z,3.63
2018-09-02T11:23:33.482Z,3.77
2018-09-02T11:26:00.679Z,3.90
2018-09-02T11:28:27.858Z,3.77
2018-09-02T11:30:55.016Z,4.10
2018-09-02T11:33:22.451Z,4.03
2018-09-02T11:35:49.598Z,3.87
2018-09-02T11:38:16.748Z,4.70
2018-09-02T11:40:44.102Z,3.43
2018-09-02T11:43:11.253Z,3.40
2018-09-02T11:45:38.568Z,3.77
2018-09-02T11:48:05.748Z,3.47
2018-09-02T11:50:32.912Z,4.00
2018-09-02T11:53:00.079Z,3.30
2018-09-02T11:55:27.249Z,3.33
2018-09-02T11:57:58.100Z,3.20
2018-09-02T12:00:25.342Z,2.90
2018-09-02T12:02:52.578Z,3.93
2018-09-02T12:05:21.608Z,3.37
2018-09-02T12:07:48.782Z,2.77
2018-09-02T12:10:15.963Z,3.53
2018-09-02T12:12:43.133Z,3.40
2018-09-02T12:15:10.335Z,4.00
2018-09-02T12:17:37.484Z,3.17
2018-09-02T12:20:04.654Z,3.60
2018-09-02T12:22:31.855Z,3.47
2018-09-02T12:24:59.042Z,3.33
2018-09-02T12:27:26.476Z,3.43
2018-09-02T12:29:53.643Z,3.47
2018-09-02T12:32:20.831Z,3.60
2018-09-02T12:34:48.114Z,3.07
2018-09-02T12:37:15.370Z,3.90
2018-09-02T12:39:42.554Z,3.27
2018-09-02T12:42:09.766Z,3.03
2018-09-02T12:44:36.930Z,2.90
2018-09-02T12:47:04.218Z,3.30
2018-09-02T12:49:31.445Z,2.97
2018-09-02T12:51:58.730Z,3.47
2018-09-02T12:54:25.953Z,3.33
2018-09-02T12:56:53.131Z,3.70
2018-09-02T12:59:20.343Z,3.67
2018-09-02T13:01:47.500Z,3.00
2018-09-02T13:04:14.672Z,3.20
2018-09-02T13:06:41.890Z,2.60
2018-09-02T13:09:09.096Z,2.97
2018-09-02T13:11:36.283Z,3.23
2018-09-02T13:14:03.605Z,3.63
2018-09-02T13:16:30.794Z,3.60
2018-09-02T13:18:58.070Z,3.10
2018-09-02T13:21:25.178Z,2.93
2018-09-02T13:23:52.379Z,3.30
2018-09-02T13:26:19.529Z,2.70
2018-09-02T13:28:46.687Z,2.83
2018-09-02T13:31:13.874Z,2.73
2018-09-02T13:33:41.100Z,2.70
2018-09-02T13:36:08.238Z,3.00
2018-09-02T13:38:35.399Z,2.80
2018-09-02T13:41:02.567Z,3.00
2018-09-02T13:43:29.820Z,2.90
2018-09-02T13:45:56.982Z,2.60
2018-09-02T13:48:24.282Z,2.90
2018-09-02T13:50:51.469Z,2.37
2018-09-02T13:53:18.639Z,2.80
2018-09-02T13:55:45.822Z,2.70
2018-09-02T13:58:12.992Z,2.60
2018-09-02T14:00:40.175Z,2.30
2018-09-02T14:03:07.422Z,2.50
2018-09-02T14:05:34.599Z,2.80
2018-09-02T14:08:01.816Z,2.40
2018-09-02T14:10:28.962Z,2.20
2018-09-02T14:12:56.219Z,2.30
2018-09-02T14:15:23.498Z,2.20
2018-09-02T14:17:50.683Z,2.70
2018-09-02T14:20:17.861Z,2.53
2018-09-02T14:22:45.063Z,2.23
2018-09-02T14:25:12.264Z,2.27
2018-09-02T14:27:39.405Z,2.77
2018-09-02T14:30:06.719Z,2.90
2018-09-02T14:32:33.900Z,2.70
2018-09-02T14:35:01.092Z,2.70
2018-09-02T14:37:28.263Z,2.50
2018-09-02T14:39:55.442Z,2.50
2018-09-02T14:42:22.606Z,4.87
2018-09-02T14:44:49.810Z,3.47
2018-09-02T14:47:17.025Z,2.93
2018-09-02T14:49:44.207Z,2.67
2018-09-02T14:52:11.398Z,3.10
2018-09-02T14:54:38.762Z,2.63
2018-09-02T14:57:05.978Z,2.17
2018-09-02T14:59:33.183Z,2.53
2018-09-02T15:02:06.978Z,2.80
2018-09-02T15:04:34.132Z,2.90
2018-09-02T15:07:01.295Z,2.27
2018-09-02T15:09:28.478Z,2.43
2018-09-02T15:11:55.638Z,2.47
2018-09-02T15:14:22.880Z,2.40
2018-09-02T15:16:50.049Z,2.80
2018-09-02T15:19:17.229Z,2.20
2018-09-02T15:21:44.416Z,2.07
2018-09-02T15:24:11.620Z,2.23
2018-09-02T15:26:38.779Z,2.77
2018-09-02T15:29:06.098Z,2.97
2018-09-02T15:31:33.298Z,2.93
2018-09-02T15:34:00.461Z,2.27
2018-09-02T15:36:27.667Z,2.53
2018-09-02T15:38:54.824Z,2.30
2018-09-02T15:41:22.048Z,2.83
2018-09-02T15:43:49.238Z,3.23
2018-09-02T15:46:16.425Z,2.47
2018-09-02T15:48:43.662Z,2.80
2018-09-02T15:51:10.988Z,2.50
2018-09-02T15:53:38.765Z,3.20
2018-09-02T15:56:05.930Z,2.83
2018-09-02T15:58:33.282Z,2.43
2018-09-02T16:01:00.552Z,3.13
2018-09-02T16:03:27.701Z,3.00
2018-09-02T16:05:54.875Z,3.30
2018-09-02T16:08:22.335Z,3.30
2018-09-02T16:10:49.592Z,2.47
2018-09-02T16:13:16.770Z,3.00
2018-09-02T16:15:44.709Z,3.00
2018-09-02T16:18:11.933Z,2.77
2018-09-02T16:20:39.119Z,3.00
2018-09-02T16:23:06.292Z,2.70
2018-09-02T16:25:33.467Z,2.87
2018-09-02T16:28:00.632Z,2.57
2018-09-02T16:30:27.836Z,2.80
2018-09-02T16:32:55.018Z,2.40
2018-09-02T16:35:22.231Z,3.10
2018-09-02T16:37:49.483Z,2.73
2018-09-02T16:40:16.750Z,2.57
2018-09-02T16:42:44.018Z,2.83
2018-09-02T16:45:11.227Z,2.80
2018-09-02T16:47:38.515Z,2.90
2018-09-02T16:50:05.863Z,2.80
2018-09-02T16:52:33.028Z,2.80
2018-09-02T16:55:06.790Z,3.60
2018-09-02T16:57:33.955Z,3.10
2018-09-02T17:00:01.136Z,3.20
2018-09-02T17:02:28.286Z,2.47
2018-09-02T17:05:00.205Z,2.80
2018-09-02T17:07:27.392Z,2.67
2018-09-02T17:09:54.538Z,2.90
2018-09-02T17:12:21.742Z,2.67
2018-09-02T17:14:48.863Z,2.73
2018-09-02T17:17:16.019Z,3.53
2018-09-02T17:19:45.559Z,3.00
2018-09-02T17:22:12.706Z,2.90
2018-09-02T17:24:39.891Z,2.67
2018-09-02T17:27:07.040Z,3.47
2018-09-02T17:29:34.223Z,2.60
2018-09-02T17:32:03.230Z,2.97
2018-09-02T17:34:30.406Z,2.90
2018-09-02T17:36:57.572Z,3.23
2018-09-02T17:39:24.738Z,3.27
2018-09-02T17:41:51.991Z,3.53
2018-09-02T17:44:19.171Z,2.30
2018-09-02T17:46:46.339Z,2.60
2018-09-02T17:49:13.482Z,2.90
2018-09-02T17:51:40.650Z,2.90
2018-09-02T17:54:07.823Z,2.77
2018-09-02T17:56:34.987Z,2.60
2018-09-02T17:59:02.135Z,2.67
2018-09-02T18:01:29.334Z,3.03
2018-09-02T18:03:56.486Z,2.83
2018-09-02T18:06:23.666Z,2.80
2018-09-02T18:08:50.826Z,3.30
2018-09-02T18:11:18.006Z,3.20
2018-09-02T18:13:45.166Z,3.50
2018-09-02T18:16:12.351Z,3.20
2018-09-02T18:18:39.823Z,3.30
2018-09-02T18:21:06.997Z,3.30
2018-09-02T18:23:34.152Z,3.20
2018-09-02T18:26:01.564Z,2.87
2018-09-02T18:28:32.529Z,2.90
2018-09-02T18:30:59.707Z,3.13
2018-09-02T18:33:26.889Z,2.80
2018-09-02T18:35:54.088Z,3.13
2018-09-02T18:38:21.516Z,2.90
2018-09-02T18:40:48.707Z,3.03
2018-09-02T18:43:15.862Z,3.10
2018-09-02T18:45:43.056Z,3.37
2018-09-02T18:48:10.216Z,3.83
2018-09-02T18:50:37.591Z,3.23
2018-09-02T18:53:04.824Z,3.40
2018-09-02T18:55:31.983Z,3.40
2018-09-02T18:57:59.142Z,3.07
2018-09-02T19:00:26.319Z,3.20
2018-09-02T19:02:53.480Z,3.73
2018-09-02T19:05:20.666Z,3.30
2018-09-02T19:07:47.847Z,3.10
2018-09-02T19:10:15.000Z,3.40
2018-09-02T19:12:42.170Z,3.50
2018-09-02T19:15:09.318Z,3.40
2018-09-02T19:17:36.494Z,3.43
2018-09-02T19:20:03.682Z,3.53
2018-09-02T19:22:30.858Z,3.40
2018-09-02T19:25:04.594Z,3.57
2018-09-02T19:27:31.797Z,3.60
2018-09-02T19:29:58.955Z,3.50
2018-09-02T19:32:26.154Z,3.10
2018-09-02T19:34:53.322Z,3.33
2018-09-02T19:37:20.476Z,3.40
2018-09-02T19:39:47.624Z,4.30
2018-09-02T19:42:14.783Z,3.23
2018-09-02T19:44:41.936Z,3.30
2018-09-02T19:47:09.107Z,4.07
2018-09-02T19:49:36.263Z,3.97
2018-09-02T19:52:03.451Z,4.53
2018-09-02T19:54:30.608Z,4.70
2018-09-02T19:56:57.776Z,4.13
2018-09-02T19:59:24.923Z,4.80
2018-09-02T20:01:52.090Z,4.87
2018-09-02T20:04:19.240Z,3.80
2018-09-02T20:06:46.427Z,3.90
2018-09-02T20:09:14.386Z,4.30
2018-09-02T20:11:41.868Z,4.33
2018-09-02T20:14:09.307Z,4.13
2018-09-02T20:16:36.446Z,4.47
2018-09-02T20:19:03.672Z,4.30
2018-09-02T20:21:30.806Z,4.03
2018-09-02T20:23:58.060Z,4.47
2018-09-02T20:26:25.138Z,5.27
2018-09-02T20:28:52.326Z,4.50
2018-09-02T20:31:19.511Z,3.70
2018-09-02T20:33:46.707Z,4.50
2018-09-02T20:36:13.878Z,4.47
2018-09-02T20:38:41.043Z,4.13
2018-09-02T20:41:08.202Z,4.17
2018-09-02T20:43:35.375Z,4.83
2018-09-02T20:46:02.535Z,4.10
2018-09-02T20:48:29.719Z,4.10
2018-09-02T20:50:56.880Z,4.50
2018-09-02T20:53:24.054Z,4.60
2018-09-02T20:55:51.219Z,4.83
2018-09-02T20:58:18.391Z,4.50
2018-09-02T21:00:45.551Z,4.30
2018-09-02T21:03:12.719Z,4.67
2018-09-02T21:05:39.915Z,4.70
2018-09-02T21:08:07.163Z,5.43
2018-09-02T21:10:34.314Z,4.83
2018-09-02T21:13:01.487Z,5.13
2018-09-02T21:15:28.642Z,4.40
2018-09-02T21:17:55.818Z,4.50
2018-09-02T21:20:22.965Z,4.50
2018-09-02T21:22:50.131Z,3.73
2018-09-02T21:25:17.317Z,4.33
2018-09-02T21:27:44.466Z,4.23
2018-09-02T21:30:11.643Z,4.17
2018-09-02T21:32:39.832Z,4.57
2018-09-02T21:35:07.068Z,4.57
2018-09-02T21:37:34.242Z,5.03
2018-09-02T21:40:01.419Z,5.00
2018-09-02T21:42:28.562Z,5.30
2018-09-02T21:44:55.743Z,4.70
2018-09-02T21:47:22.906Z,5.20
2018-09-02T21:49:50.104Z,4.60
2018-09-02T21:52:17.256Z,4.97
2018-09-02T21:54:44.425Z,5.03
2018-09-02T21:57:11.588Z,5.10
2018-09-02T21:59:38.760Z,4.30
2018-09-02T22:02:05.934Z,5.10
2018-09-02T22:04:33.118Z,4.03
2018-09-02T22:07:00.273Z,4.37
2018-09-02T22:09:27.455Z,4.67
2018-09-02T22:11:54.604Z,4.50
2018-09-02T22:14:21.769Z,4.73
2018-09-02T22:16:49.180Z,4.40
2018-09-02T22:19:16.334Z,4.60
2018-09-02T22:21:43.583Z,4.83
2018-09-02T22:24:10.814Z,4.70
2018-09-02T22:26:38.026Z,4.83
2018-09-02T22:29:05.242Z,5.10
2018-09-02T22:31:32.392Z,4.53
2018-09-02T22:33:59.569Z,4.57
2018-09-02T22:36:26.714Z,4.73
2018-09-02T22:38:53.994Z,4.67
2018-09-02T22:41:21.175Z,4.60
2018-09-02T22:43:48.355Z,4.47
2018-09-02T22:46:15.534Z,4.47
2018-09-02T22:48:42.745Z,5.07
2018-09-02T22:51:09.935Z,5.07
2018-09-02T22:53:37.151Z,4.77
2018-09-02T22:56:04.306Z,4.23
2018-09-02T22:58:31.478Z,4.70
2018-09-02T23:00:58.750Z,4.07
2018-09-02T23:03:25.907Z,4.47
2018-09-02T23:05:53.090Z,4.90
2018-09-02T23:08:20.234Z,4.50
2018-09-02T23:10:47.424Z,4.40
2018-09-02T23:13:14.562Z,4.60
2018-09-02T23:15:41.736Z,5.23
2018-09-02T23:18:08.887Z,4.77
2018-09-02T23:20:36.079Z,4.73
2018-09-02T23:23:03.271Z,5.20
2018-09-02T23:25:30.469Z,5.13
2018-09-02T23:27:57.614Z,4.67
2018-09-02T23:30:24.789Z,4.30
2018-09-02T23:32:51.959Z,4.83
2018-09-02T23:35:19.135Z,5.83
2018-09-02T23:37:46.270Z,4.57
2018-09-02T23:40:13.454Z,5.33
2018-09-02T23:42:40.594Z,4.63
2018-09-02T23:45:07.760Z,4.90
2018-09-02T23:47:34.898Z,5.10
2018-09-02T23:50:02.063Z,4.93
2018-09-02T23:52:29.213Z,5.20
2018-09-02T23:54:56.388Z,5.67
2018-09-02T23:57:23.547Z,5.33
2018-09-02T23:59:50.830Z,5.20
